sensor_id;sensor_type;location;lat;lon;timestamp;P1;durP1;ratioP1;P2;durP2;ratioP2
24644;SDS011;12780;45.502;9.146;2022-09-16T00:00:35;10.43;;;3.55;;
24644;SDS011;12780;45.502;9.146;2022-09-16T00:03:01;18.10;;;3.60;;
24644;SDS011;12780;45.502;9.146;2022-09-16T00:05:27;12.20;;;3.70;;
24644;SDS011;12780;45.502;9.146;2022-09-16T00:07:53;11.70;;;3.58;;
24644;SDS011;12780;45.502;9.146;2022-09-16T00:10:20;16.60;;;3.72;;
24644;SDS011;12780;45.502;9.146;2022-09-16T00:12:46;12.38;;;3.78;;
24644;SDS011;12780;45.502;9.146;2022-09-16T00:15:12;13.95;;;3.88;;
24644;SDS011;12780;45.502;9.146;2022-09-16T00:17:38;9.88;;;3.67;;
24644;SDS011;12780;45.502;9.146;2022-09-16T00:20:04;9.20;;;3.45;;
24644;SDS011;12780;45.502;9.146;2022-09-16T00:22:33;11.07;;;3.25;;
24644;SDS011;12780;45.502;9.146;2022-09-16T00:24:59;12.43;;;3.72;;
24644;SDS011;12780;45.502;9.146;2022-09-16T00:27:24;18.65;;;4.03;;
24644;SDS011;12780;45.502;9.146;2022-09-16T00:29:50;13.63;;;3.88;;
24644;SDS011;12780;45.502;9.146;2022-09-16T00:32:15;14.32;;;3.90;;
24644;SDS011;12780;45.502;9.146;2022-09-16T00:34:41;16.95;;;4.03;;
24644;SDS011;12780;45.502;9.146;2022-09-16T00:37:06;14.45;;;4.53;;
24644;SDS011;12780;45.502;9.146;2022-09-16T00:39:34;14.65;;;3.65;;
24644;SDS011;12780;45.502;9.146;2022-09-16T00:42:00;11.30;;;4.10;;
24644;SDS011;12780;45.502;9.146;2022-09-16T00:47:17;14.15;;;4.03;;
24644;SDS011;12780;45.502;9.146;2022-09-16T00:49:51;16.10;;;4.22;;
24644;SDS011;12780;45.502;9.146;2022-09-16T00:52:20;15.68;;;4.03;;
24644;SDS011;12780;45.502;9.146;2022-09-16T00:54:46;11.52;;;3.70;;
24644;SDS011;12780;45.502;9.146;2022-09-16T00:57:12;14.30;;;4.65;;
24644;SDS011;12780;45.502;9.146;2022-09-16T00:59:40;18.88;;;4.28;;
24644;SDS011;12780;45.502;9.146;2022-09-16T01:02:10;14.75;;;4.40;;
24644;SDS011;12780;45.502;9.146;2022-09-16T01:04:53;16.88;;;4.13;;
24644;SDS011;12780;45.502;9.146;2022-09-16T01:07:26;17.27;;;4.05;;
24644;SDS011;12780;45.502;9.146;2022-09-16T01:10:04;13.30;;;3.90;;
24644;SDS011;12780;45.502;9.146;2022-09-16T01:12:30;14.98;;;4.07;;
24644;SDS011;12780;45.502;9.146;2022-09-16T01:14:57;16.95;;;4.70;;
24644;SDS011;12780;45.502;9.146;2022-09-16T01:20:34;13.25;;;3.88;;
24644;SDS011;12780;45.502;9.146;2022-09-16T01:23:29;14.23;;;4.30;;
24644;SDS011;12780;45.502;9.146;2022-09-16T01:26:29;12.68;;;4.20;;
24644;SDS011;12780;45.502;9.146;2022-09-16T01:31:38;15.88;;;4.57;;
24644;SDS011;12780;45.502;9.146;2022-09-16T01:35:23;14.00;;;4.63;;
24644;SDS011;12780;45.502;9.146;2022-09-16T01:51:36;14.45;;;4.88;;
24644;SDS011;12780;45.502;9.146;2022-09-16T01:53:52;11.43;;;4.78;;
24644;SDS011;12780;45.502;9.146;2022-09-16T01:56:41;16.17;;;4.80;;
24644;SDS011;12780;45.502;9.146;2022-09-16T01:59:22;11.68;;;4.50;;
24644;SDS011;12780;45.502;9.146;2022-09-16T02:02:00;17.10;;;4.80;;
24644;SDS011;12780;45.502;9.146;2022-09-16T02:04:32;11.93;;;5.20;;
24644;SDS011;12780;45.502;9.146;2022-09-16T02:07:03;16.63;;;4.72;;
24644;SDS011;12780;45.502;9.146;2022-09-16T02:09:33;15.73;;;4.78;;
24644;SDS011;12780;45.502;9.146;2022-09-16T02:12:04;13.80;;;5.28;;
24644;SDS011;12780;45.502;9.146;2022-09-16T02:14:44;14.60;;;4.53;;
24644;SDS011;12780;45.502;9.146;2022-09-16T02:17:12;13.10;;;4.78;;
24644;SDS011;12780;45.502;9.146;2022-09-16T02:22:28;16.08;;;4.97;;
24644;SDS011;12780;45.502;9.146;2022-09-16T02:24:58;14.18;;;5.32;;
24644;SDS011;12780;45.502;9.146;2022-09-16T02:27:27;14.65;;;5.40;;
24644;SDS011;12780;45.502;9.146;2022-09-16T02:30:00;14.43;;;5.32;;
24644;SDS011;12780;45.502;9.146;2022-09-16T02:32:29;14.30;;;5.38;;
24644;SDS011;12780;45.502;9.146;2022-09-16T02:34:58;13.27;;;5.18;;
24644;SDS011;12780;45.502;9.146;2022-09-16T02:40:16;17.52;;;5.30;;
24644;SDS011;12780;45.502;9.146;2022-09-16T02:42:48;18.33;;;4.80;;
24644;SDS011;12780;45.502;9.146;2022-09-16T02:45:14;13.32;;;4.60;;
24644;SDS011;12780;45.502;9.146;2022-09-16T02:53:03;16.05;;;4.97;;
24644;SDS011;12780;45.502;9.146;2022-09-16T02:55:48;16.02;;;5.22;;
24644;SDS011;12780;45.502;9.146;2022-09-16T02:58:20;15.68;;;4.68;;
24644;SDS011;12780;45.502;9.146;2022-09-16T03:00:47;16.80;;;5.50;;
24644;SDS011;12780;45.502;9.146;2022-09-16T03:03:16;13.85;;;5.10;;
24644;SDS011;12780;45.502;9.146;2022-09-16T03:05:57;12.82;;;5.07;;
24644;SDS011;12780;45.502;9.146;2022-09-16T03:08:37;16.73;;;5.35;;
24644;SDS011;12780;45.502;9.146;2022-09-16T03:22:15;15.32;;;5.47;;
24644;SDS011;12780;45.502;9.146;2022-09-16T03:25:00;12.23;;;5.10;;
24644;SDS011;12780;45.502;9.146;2022-09-16T03:27:38;13.35;;;5.78;;
24644;SDS011;12780;45.502;9.146;2022-09-16T03:30:31;15.15;;;6.32;;
24644;SDS011;12780;45.502;9.146;2022-09-16T03:33:03;18.60;;;5.80;;
24644;SDS011;12780;45.502;9.146;2022-09-16T03:35:37;12.65;;;5.22;;
24644;SDS011;12780;45.502;9.146;2022-09-16T03:38:08;19.17;;;5.55;;
24644;SDS011;12780;45.502;9.146;2022-09-16T03:40:37;14.60;;;4.97;;
24644;SDS011;12780;45.502;9.146;2022-09-16T03:43:09;12.50;;;5.65;;
24644;SDS011;12780;45.502;9.146;2022-09-16T03:45:40;13.00;;;4.95;;
24644;SDS011;12780;45.502;9.146;2022-09-16T03:48:06;18.70;;;5.47;;
24644;SDS011;12780;45.502;9.146;2022-09-16T03:50:33;12.30;;;5.53;;
24644;SDS011;12780;45.502;9.146;2022-09-16T03:52:59;12.70;;;5.43;;
24644;SDS011;12780;45.502;9.146;2022-09-16T03:55:25;15.57;;;5.90;;
24644;SDS011;12780;45.502;9.146;2022-09-16T03:57:51;16.63;;;5.47;;
24644;SDS011;12780;45.502;9.146;2022-09-16T04:00:18;16.88;;;5.57;;
24644;SDS011;12780;45.502;9.146;2022-09-16T04:02:43;10.88;;;5.35;;
24644;SDS011;12780;45.502;9.146;2022-09-16T04:05:09;13.55;;;5.80;;
24644;SDS011;12780;45.502;9.146;2022-09-16T04:07:34;11.23;;;5.60;;
24644;SDS011;12780;45.502;9.146;2022-09-16T04:10:00;10.93;;;5.30;;
24644;SDS011;12780;45.502;9.146;2022-09-16T04:12:27;13.77;;;5.15;;
24644;SDS011;12780;45.502;9.146;2022-09-16T04:14:53;12.88;;;5.40;;
24644;SDS011;12780;45.502;9.146;2022-09-16T04:17:18;12.27;;;5.45;;
24644;SDS011;12780;45.502;9.146;2022-09-16T04:19:44;11.63;;;5.53;;
24644;SDS011;12780;45.502;9.146;2022-09-16T04:22:09;14.50;;;4.82;;
24644;SDS011;12780;45.502;9.146;2022-09-16T04:24:35;16.10;;;5.10;;
24644;SDS011;12780;45.502;9.146;2022-09-16T04:27:01;14.15;;;5.40;;
24644;SDS011;12780;45.502;9.146;2022-09-16T04:29:26;14.73;;;4.88;;
24644;SDS011;12780;45.502;9.146;2022-09-16T04:31:52;17.83;;;5.07;;
24644;SDS011;12780;45.502;9.146;2022-09-16T04:34:19;12.23;;;4.95;;
24644;SDS011;12780;45.502;9.146;2022-09-16T04:36:44;15.05;;;5.43;;
24644;SDS011;12780;45.502;9.146;2022-09-16T04:39:10;11.27;;;5.43;;
24644;SDS011;12780;45.502;9.146;2022-09-16T04:41:36;13.68;;;5.03;;
24644;SDS011;12780;45.502;9.146;2022-09-16T04:44:03;16.60;;;5.60;;
24644;SDS011;12780;45.502;9.146;2022-09-16T04:46:29;10.48;;;5.18;;
24644;SDS011;12780;45.502;9.146;2022-09-16T04:48:56;17.88;;;4.90;;
24644;SDS011;12780;45.502;9.146;2022-09-16T04:51:23;15.07;;;6.03;;
24644;SDS011;12780;45.502;9.146;2022-09-16T04:53:52;10.88;;;5.00;;
24644;SDS011;12780;45.502;9.146;2022-09-16T04:56:20;14.90;;;5.18;;
24644;SDS011;12780;45.502;9.146;2022-09-16T04:58:48;12.40;;;4.93;;
24644;SDS011;12780;45.502;9.146;2022-09-16T05:01:20;10.70;;;4.88;;
24644;SDS011;12780;45.502;9.146;2022-09-16T05:03:49;16.88;;;4.90;;
24644;SDS011;12780;45.502;9.146;2022-09-16T05:06:19;14.65;;;4.80;;
24644;SDS011;12780;45.502;9.146;2022-09-16T05:08:48;13.00;;;4.72;;
24644;SDS011;12780;45.502;9.146;2022-09-16T05:11:17;14.25;;;4.97;;
24644;SDS011;12780;45.502;9.146;2022-09-16T05:13:47;18.75;;;4.70;;
24644;SDS011;12780;45.502;9.146;2022-09-16T05:16:14;15.27;;;4.80;;
24644;SDS011;12780;45.502;9.146;2022-09-16T05:18:41;14.30;;;5.40;;
24644;SDS011;12780;45.502;9.146;2022-09-16T05:21:09;11.20;;;4.55;;
24644;SDS011;12780;45.502;9.146;2022-09-16T05:23:40;17.65;;;5.38;;
24644;SDS011;12780;45.502;9.146;2022-09-16T05:26:10;14.00;;;4.80;;
24644;SDS011;12780;45.502;9.146;2022-09-16T05:28:40;20.55;;;5.35;;
24644;SDS011;12780;45.502;9.146;2022-09-16T05:31:11;11.82;;;5.00;;
24644;SDS011;12780;45.502;9.146;2022-09-16T05:33:40;15.13;;;5.03;;
24644;SDS011;12780;45.502;9.146;2022-09-16T05:36:08;16.15;;;5.20;;
24644;SDS011;12780;45.502;9.146;2022-09-16T05:38:35;14.30;;;5.20;;
24644;SDS011;12780;45.502;9.146;2022-09-16T05:41:01;9.32;;;5.40;;
24644;SDS011;12780;45.502;9.146;2022-09-16T05:43:27;14.48;;;5.05;;
24644;SDS011;12780;45.502;9.146;2022-09-16T05:45:54;14.52;;;5.68;;
24644;SDS011;12780;45.502;9.146;2022-09-16T05:48:20;16.48;;;6.43;;
24644;SDS011;12780;45.502;9.146;2022-09-16T05:50:56;12.40;;;5.35;;
24644;SDS011;12780;45.502;9.146;2022-09-16T05:53:24;13.35;;;5.35;;
24644;SDS011;12780;45.502;9.146;2022-09-16T05:55:56;12.15;;;6.05;;
24644;SDS011;12780;45.502;9.146;2022-09-16T05:58:23;12.65;;;6.03;;
24644;SDS011;12780;45.502;9.146;2022-09-16T06:00:49;15.60;;;6.60;;
24644;SDS011;12780;45.502;9.146;2022-09-16T06:03:15;20.95;;;7.70;;
24644;SDS011;12780;45.502;9.146;2022-09-16T06:05:40;19.25;;;8.10;;
24644;SDS011;12780;45.502;9.146;2022-09-16T06:08:06;18.73;;;8.38;;
24644;SDS011;12780;45.502;9.146;2022-09-16T06:10:35;17.85;;;9.13;;
24644;SDS011;12780;45.502;9.146;2022-09-16T06:13:05;19.33;;;8.85;;
24644;SDS011;12780;45.502;9.146;2022-09-16T06:15:31;24.15;;;8.90;;
24644;SDS011;12780;45.502;9.146;2022-09-16T06:17:56;22.80;;;9.10;;
24644;SDS011;12780;45.502;9.146;2022-09-16T06:20:22;18.38;;;9.68;;
24644;SDS011;12780;45.502;9.146;2022-09-16T06:22:48;21.33;;;9.75;;
24644;SDS011;12780;45.502;9.146;2022-09-16T06:25:13;21.05;;;8.98;;
24644;SDS011;12780;45.502;9.146;2022-09-16T06:27:39;27.25;;;9.77;;
24644;SDS011;12780;45.502;9.146;2022-09-16T06:30:05;20.52;;;9.07;;
24644;SDS011;12780;45.502;9.146;2022-09-16T06:32:31;33.15;;;9.50;;
24644;SDS011;12780;45.502;9.146;2022-09-16T06:34:57;28.60;;;10.15;;
24644;SDS011;12780;45.502;9.146;2022-09-16T06:37:23;23.63;;;10.18;;
24644;SDS011;12780;45.502;9.146;2022-09-16T06:39:48;27.42;;;11.00;;
24644;SDS011;12780;45.502;9.146;2022-09-16T06:42:14;29.08;;;10.45;;
24644;SDS011;12780;45.502;9.146;2022-09-16T06:44:39;26.67;;;10.80;;
24644;SDS011;12780;45.502;9.146;2022-09-16T06:47:05;24.63;;;10.27;;
24644;SDS011;12780;45.502;9.146;2022-09-16T06:49:32;28.08;;;10.85;;
24644;SDS011;12780;45.502;9.146;2022-09-16T06:51:58;26.08;;;9.70;;
24644;SDS011;12780;45.502;9.146;2022-09-16T06:54:23;26.83;;;11.75;;
24644;SDS011;12780;45.502;9.146;2022-09-16T06:56:49;29.77;;;11.20;;
24644;SDS011;12780;45.502;9.146;2022-09-16T06:59:14;21.85;;;10.95;;
24644;SDS011;12780;45.502;9.146;2022-09-16T07:01:40;21.23;;;11.02;;
24644;SDS011;12780;45.502;9.146;2022-09-16T07:04:07;21.25;;;11.13;;
24644;SDS011;12780;45.502;9.146;2022-09-16T07:06:37;25.73;;;11.27;;
24644;SDS011;12780;45.502;9.146;2022-09-16T07:09:03;25.50;;;11.10;;
24644;SDS011;12780;45.502;9.146;2022-09-16T07:11:29;30.48;;;10.63;;
24644;SDS011;12780;45.502;9.146;2022-09-16T07:13:55;18.23;;;9.00;;
24644;SDS011;12780;45.502;9.146;2022-09-16T07:16:23;27.75;;;10.38;;
24644;SDS011;12780;45.502;9.146;2022-09-16T07:18:53;24.63;;;10.18;;
24644;SDS011;12780;45.502;9.146;2022-09-16T07:21:20;24.10;;;10.48;;
24644;SDS011;12780;45.502;9.146;2022-09-16T07:23:49;28.25;;;10.30;;
24644;SDS011;12780;45.502;9.146;2022-09-16T07:26:18;25.13;;;10.55;;
24644;SDS011;12780;45.502;9.146;2022-09-16T07:28:46;25.70;;;10.77;;
24644;SDS011;12780;45.502;9.146;2022-09-16T07:31:17;30.27;;;11.50;;
24644;SDS011;12780;45.502;9.146;2022-09-16T07:33:46;35.67;;;11.73;;
24644;SDS011;12780;45.502;9.146;2022-09-16T07:36:14;26.30;;;11.60;;
24644;SDS011;12780;45.502;9.146;2022-09-16T07:38:43;32.63;;;10.05;;
24644;SDS011;12780;45.502;9.146;2022-09-16T07:41:10;24.65;;;10.52;;
24644;SDS011;12780;45.502;9.146;2022-09-16T07:43:46;29.73;;;12.07;;
24644;SDS011;12780;45.502;9.146;2022-09-16T07:46:13;22.88;;;9.73;;
24644;SDS011;12780;45.502;9.146;2022-09-16T07:48:41;23.70;;;10.90;;
24644;SDS011;12780;45.502;9.146;2022-09-16T07:51:28;26.70;;;11.00;;
24644;SDS011;12780;45.502;9.146;2022-09-16T07:53:54;24.77;;;11.68;;
24644;SDS011;12780;45.502;9.146;2022-09-16T07:56:23;22.52;;;9.75;;
24644;SDS011;12780;45.502;9.146;2022-09-16T07:58:50;26.77;;;10.18;;
24644;SDS011;12780;45.502;9.146;2022-09-16T08:01:16;22.77;;;9.95;;
24644;SDS011;12780;45.502;9.146;2022-09-16T08:03:43;25.50;;;9.75;;
24644;SDS011;12780;45.502;9.146;2022-09-16T08:06:10;30.42;;;9.77;;
24644;SDS011;12780;45.502;9.146;2022-09-16T08:08:41;18.83;;;9.00;;
24644;SDS011;12780;45.502;9.146;2022-09-16T08:11:08;27.50;;;8.73;;
24644;SDS011;12780;45.502;9.146;2022-09-16T08:13:36;26.75;;;10.10;;
24644;SDS011;12780;45.502;9.146;2022-09-16T08:16:12;30.13;;;10.48;;
24644;SDS011;12780;45.502;9.146;2022-09-16T08:18:40;26.45;;;10.02;;
24644;SDS011;12780;45.502;9.146;2022-09-16T08:21:16;25.80;;;10.45;;
24644;SDS011;12780;45.502;9.146;2022-09-16T08:23:43;33.45;;;11.20;;
24644;SDS011;12780;45.502;9.146;2022-09-16T08:26:10;22.55;;;9.45;;
24644;SDS011;12780;45.502;9.146;2022-09-16T08:28:38;25.92;;;10.73;;
24644;SDS011;12780;45.502;9.146;2022-09-16T08:31:06;32.17;;;10.40;;
24644;SDS011;12780;45.502;9.146;2022-09-16T08:33:32;29.00;;;9.77;;
24644;SDS011;12780;45.502;9.146;2022-09-16T08:35:59;24.48;;;7.78;;
24644;SDS011;12780;45.502;9.146;2022-09-16T08:38:26;19.95;;;8.07;;
24644;SDS011;12780;45.502;9.146;2022-09-16T08:40:54;23.55;;;9.35;;
24644;SDS011;12780;45.502;9.146;2022-09-16T08:43:33;18.88;;;7.10;;
24644;SDS011;12780;45.502;9.146;2022-09-16T08:46:06;24.38;;;7.63;;
24644;SDS011;12780;45.502;9.146;2022-09-16T08:51:07;19.60;;;7.75;;
24644;SDS011;12780;45.502;9.146;2022-09-16T08:53:40;30.40;;;7.90;;
24644;SDS011;12780;45.502;9.146;2022-09-16T08:56:12;29.48;;;9.93;;
24644;SDS011;12780;45.502;9.146;2022-09-16T08:58:44;23.85;;;10.65;;
24644;SDS011;12780;45.502;9.146;2022-09-16T09:03:45;22.13;;;11.05;;
24644;SDS011;12780;45.502;9.146;2022-09-16T09:25:48;32.05;;;14.50;;
24644;SDS011;12780;45.502;9.146;2022-09-16T09:36:52;36.95;;;16.20;;
24644;SDS011;12780;45.502;9.146;2022-09-16T09:42:18;36.22;;;15.07;;
24644;SDS011;12780;45.502;9.146;2022-09-16T09:44:51;33.03;;;16.27;;
24644;SDS011;12780;45.502;9.146;2022-09-16T09:47:25;33.00;;;16.33;;
24644;SDS011;12780;45.502;9.146;2022-09-16T09:49:57;29.08;;;15.10;;
24644;SDS011;12780;45.502;9.146;2022-09-16T09:52:36;31.17;;;16.77;;
24644;SDS011;12780;45.502;9.146;2022-09-16T09:55:17;30.88;;;18.15;;
24644;SDS011;12780;45.502;9.146;2022-09-16T10:00:45;32.47;;;16.48;;
24644;SDS011;12780;45.502;9.146;2022-09-16T10:03:15;32.20;;;20.13;;
24644;SDS011;12780;45.502;9.146;2022-09-16T10:05:42;34.15;;;17.98;;
24644;SDS011;12780;45.502;9.146;2022-09-16T10:08:16;40.17;;;19.05;;
24644;SDS011;12780;45.502;9.146;2022-09-16T10:10:52;32.67;;;18.50;;
24644;SDS011;12780;45.502;9.146;2022-09-16T10:13:20;32.55;;;18.17;;
24644;SDS011;12780;45.502;9.146;2022-09-16T10:15:47;29.35;;;16.88;;
24644;SDS011;12780;45.502;9.146;2022-09-16T10:18:24;39.25;;;17.38;;
24644;SDS011;12780;45.502;9.146;2022-09-16T10:20:58;27.50;;;14.43;;
24644;SDS011;12780;45.502;9.146;2022-09-16T10:23:29;27.75;;;13.70;;
24644;SDS011;12780;45.502;9.146;2022-09-16T10:26:06;34.00;;;14.25;;
24644;SDS011;12780;45.502;9.146;2022-09-16T10:28:59;29.45;;;14.88;;
24644;SDS011;12780;45.502;9.146;2022-09-16T10:31:33;32.08;;;14.50;;
24644;SDS011;12780;45.502;9.146;2022-09-16T10:34:01;32.13;;;14.77;;
24644;SDS011;12780;45.502;9.146;2022-09-16T10:36:31;24.60;;;12.50;;
24644;SDS011;12780;45.502;9.146;2022-09-16T10:38:59;24.75;;;11.70;;
24644;SDS011;12780;45.502;9.146;2022-09-16T10:41:27;23.33;;;13.27;;
24644;SDS011;12780;45.502;9.146;2022-09-16T10:44:16;30.08;;;12.77;;
24644;SDS011;12780;45.502;9.146;2022-09-16T10:46:50;31.20;;;15.25;;
24644;SDS011;12780;45.502;9.146;2022-09-16T10:49:19;25.65;;;14.48;;
24644;SDS011;12780;45.502;9.146;2022-09-16T10:51:49;27.38;;;14.13;;
24644;SDS011;12780;45.502;9.146;2022-09-16T10:54:22;28.95;;;14.95;;
24644;SDS011;12780;45.502;9.146;2022-09-16T10:56:50;29.80;;;13.02;;
24644;SDS011;12780;45.502;9.146;2022-09-16T10:59:16;22.50;;;9.85;;
24644;SDS011;12780;45.502;9.146;2022-09-16T11:42:34;18.17;;;7.78;;
24644;SDS011;12780;45.502;9.146;2022-09-16T11:50:44;14.98;;;7.88;;
24644;SDS011;12780;45.502;9.146;2022-09-16T12:04:01;13.10;;;6.50;;
24644;SDS011;12780;45.502;9.146;2022-09-16T12:06:29;15.32;;;7.40;;
24644;SDS011;12780;45.502;9.146;2022-09-16T12:09:05;17.52;;;9.48;;
24644;SDS011;12780;45.502;9.146;2022-09-16T12:11:45;18.88;;;7.70;;
24644;SDS011;12780;45.502;9.146;2022-09-16T12:16:44;18.63;;;6.57;;
24644;SDS011;12780;45.502;9.146;2022-09-16T12:19:25;19.83;;;7.28;;
24644;SDS011;12780;45.502;9.146;2022-09-16T12:22:08;15.30;;;6.63;;
24644;SDS011;12780;45.502;9.146;2022-09-16T12:24:44;17.27;;;6.60;;
24644;SDS011;12780;45.502;9.146;2022-09-16T12:27:49;19.50;;;6.18;;
24644;SDS011;12780;45.502;9.146;2022-09-16T12:30:20;15.07;;;5.20;;
24644;SDS011;12780;45.502;9.146;2022-09-16T12:33:00;13.73;;;4.82;;
24644;SDS011;12780;45.502;9.146;2022-09-16T12:38:23;12.98;;;3.92;;
24644;SDS011;12780;45.502;9.146;2022-09-16T12:40:52;10.68;;;4.00;;
24644;SDS011;12780;45.502;9.146;2022-09-16T12:49:04;11.23;;;3.78;;
24644;SDS011;12780;45.502;9.146;2022-09-16T13:00:10;10.45;;;3.50;;
24644;SDS011;12780;45.502;9.146;2022-09-16T13:02:41;7.40;;;2.80;;
24644;SDS011;12780;45.502;9.146;2022-09-16T13:05:17;7.57;;;3.15;;
24644;SDS011;12780;45.502;9.146;2022-09-16T13:08:06;6.03;;;3.10;;
24644;SDS011;12780;45.502;9.146;2022-09-16T13:10:43;7.18;;;3.15;;
24644;SDS011;12780;45.502;9.146;2022-09-16T13:13:15;9.45;;;3.38;;
24644;SDS011;12780;45.502;9.146;2022-09-16T13:15:44;5.55;;;3.05;;
24644;SDS011;12780;45.502;9.146;2022-09-16T13:18:21;11.20;;;3.30;;
24644;SDS011;12780;45.502;9.146;2022-09-16T13:20:55;9.23;;;3.47;;
24644;SDS011;12780;45.502;9.146;2022-09-16T13:23:30;14.13;;;3.47;;
24644;SDS011;12780;45.502;9.146;2022-09-16T13:26:01;8.15;;;3.22;;
24644;SDS011;12780;45.502;9.146;2022-09-16T13:33:37;10.88;;;3.10;;
24644;SDS011;12780;45.502;9.146;2022-09-16T13:36:32;7.20;;;2.83;;
24644;SDS011;12780;45.502;9.146;2022-09-16T13:38:59;6.90;;;3.00;;
24644;SDS011;12780;45.502;9.146;2022-09-16T13:41:31;6.47;;;3.17;;
24644;SDS011;12780;45.502;9.146;2022-09-16T13:49:35;12.85;;;3.40;;
24644;SDS011;12780;45.502;9.146;2022-09-16T13:52:10;5.95;;;2.85;;
24644;SDS011;12780;45.502;9.146;2022-09-16T13:54:47;9.30;;;3.65;;
24644;SDS011;12780;45.502;9.146;2022-09-16T14:00:11;7.35;;;3.00;;
24644;SDS011;12780;45.502;9.146;2022-09-16T14:05:25;6.85;;;2.88;;
24644;SDS011;12780;45.502;9.146;2022-09-16T14:15:55;4.97;;;2.50;;
24644;SDS011;12780;45.502;9.146;2022-09-16T14:18:24;9.85;;;2.70;;
24644;SDS011;12780;45.502;9.146;2022-09-16T14:23:25;7.03;;;2.80;;
24644;SDS011;12780;45.502;9.146;2022-09-16T14:25:51;10.57;;;2.92;;
24644;SDS011;12780;45.502;9.146;2022-09-16T14:30:44;8.85;;;2.47;;
24644;SDS011;12780;45.502;9.146;2022-09-16T14:33:15;8.63;;;2.40;;
24644;SDS011;12780;45.502;9.146;2022-09-16T14:35:44;8.85;;;2.42;;
24644;SDS011;12780;45.502;9.146;2022-09-16T14:38:12;12.10;;;3.13;;
24644;SDS011;12780;45.502;9.146;2022-09-16T14:40:42;6.15;;;2.10;;
24644;SDS011;12780;45.502;9.146;2022-09-16T14:43:12;9.77;;;2.75;;
24644;SDS011;12780;45.502;9.146;2022-09-16T14:45:45;6.68;;;2.95;;
24644;SDS011;12780;45.502;9.146;2022-09-16T14:48:14;7.03;;;2.78;;
24644;SDS011;12780;45.502;9.146;2022-09-16T14:50:43;9.73;;;2.38;;
24644;SDS011;12780;45.502;9.146;2022-09-16T14:53:31;12.10;;;2.63;;
24644;SDS011;12780;45.502;9.146;2022-09-16T14:55:58;4.90;;;2.20;;
24644;SDS011;12780;45.502;9.146;2022-09-16T14:58:27;5.72;;;2.65;;
24644;SDS011;12780;45.502;9.146;2022-09-16T15:00:56;7.40;;;2.50;;
24644;SDS011;12780;45.502;9.146;2022-09-16T15:03:56;7.78;;;2.50;;
24644;SDS011;12780;45.502;9.146;2022-09-16T15:06:27;8.18;;;3.00;;
24644;SDS011;12780;45.502;9.146;2022-09-16T15:09:12;4.38;;;2.50;;
24644;SDS011;12780;45.502;9.146;2022-09-16T15:11:48;5.40;;;2.47;;
24644;SDS011;12780;45.502;9.146;2022-09-16T15:14:18;8.70;;;2.80;;
24644;SDS011;12780;45.502;9.146;2022-09-16T15:16:45;7.63;;;2.60;;
24644;SDS011;12780;45.502;9.146;2022-09-16T15:19:18;5.43;;;2.40;;
24644;SDS011;12780;45.502;9.146;2022-09-16T15:21:50;9.18;;;2.38;;
24644;SDS011;12780;45.502;9.146;2022-09-16T15:24:18;8.35;;;2.70;;
24644;SDS011;12780;45.502;9.146;2022-09-16T15:26:47;12.63;;;3.25;;
24644;SDS011;12780;45.502;9.146;2022-09-16T15:31:42;7.85;;;2.92;;
24644;SDS011;12780;45.502;9.146;2022-09-16T15:42:01;6.68;;;2.97;;
24644;SDS011;12780;45.502;9.146;2022-09-16T15:44:29;10.02;;;2.95;;
24644;SDS011;12780;45.502;9.146;2022-09-16T15:46:55;6.57;;;2.80;;
24644;SDS011;12780;45.502;9.146;2022-09-16T15:49:22;6.32;;;2.97;;
24644;SDS011;12780;45.502;9.146;2022-09-16T15:51:50;5.15;;;2.80;;
24644;SDS011;12780;45.502;9.146;2022-09-16T15:57:20;6.40;;;3.50;;
24644;SDS011;12780;45.502;9.146;2022-09-16T16:00:08;6.53;;;2.60;;
24644;SDS011;12780;45.502;9.146;2022-09-16T16:07:45;6.65;;;3.22;;
24644;SDS011;12780;45.502;9.146;2022-09-16T16:10:20;7.72;;;3.30;;
24644;SDS011;12780;45.502;9.146;2022-09-16T16:12:49;14.82;;;3.05;;
24644;SDS011;12780;45.502;9.146;2022-09-16T16:15:23;8.32;;;3.03;;
24644;SDS011;12780;45.502;9.146;2022-09-16T16:18:02;6.25;;;2.70;;
24644;SDS011;12780;45.502;9.146;2022-09-16T16:20:32;5.22;;;2.92;;
24644;SDS011;12780;45.502;9.146;2022-09-16T16:23:00;6.85;;;2.70;;
24644;SDS011;12780;45.502;9.146;2022-09-16T16:25:26;7.60;;;3.00;;
24644;SDS011;12780;45.502;9.146;2022-09-16T16:27:52;10.63;;;2.92;;
24644;SDS011;12780;45.502;9.146;2022-09-16T16:30:18;7.88;;;2.88;;
24644;SDS011;12780;45.502;9.146;2022-09-16T16:32:43;7.00;;;2.90;;
24644;SDS011;12780;45.502;9.146;2022-09-16T16:35:09;17.45;;;5.75;;
24644;SDS011;12780;45.502;9.146;2022-09-16T16:37:35;9.77;;;3.42;;
24644;SDS011;12780;45.502;9.146;2022-09-16T16:40:02;7.53;;;3.30;;
24644;SDS011;12780;45.502;9.146;2022-09-16T16:42:28;6.55;;;3.15;;
24644;SDS011;12780;45.502;9.146;2022-09-16T16:44:54;8.77;;;2.97;;
24644;SDS011;12780;45.502;9.146;2022-09-16T16:47:20;5.65;;;3.00;;
24644;SDS011;12780;45.502;9.146;2022-09-16T16:49:46;8.07;;;3.47;;
24644;SDS011;12780;45.502;9.146;2022-09-16T16:52:12;7.22;;;2.90;;
24644;SDS011;12780;45.502;9.146;2022-09-16T16:54:38;8.90;;;3.00;;
24644;SDS011;12780;45.502;9.146;2022-09-16T16:57:07;8.57;;;3.20;;
24644;SDS011;12780;45.502;9.146;2022-09-16T16:59:32;14.30;;;3.35;;
24644;SDS011;12780;45.502;9.146;2022-09-16T17:01:58;7.95;;;3.60;;
24644;SDS011;12780;45.502;9.146;2022-09-16T17:04:24;9.63;;;3.30;;
24644;SDS011;12780;45.502;9.146;2022-09-16T17:06:49;8.57;;;3.30;;
24644;SDS011;12780;45.502;9.146;2022-09-16T17:09:15;9.30;;;3.63;;
24644;SDS011;12780;45.502;9.146;2022-09-16T17:11:49;8.43;;;3.25;;
24644;SDS011;12780;45.502;9.146;2022-09-16T17:14:16;7.88;;;3.15;;
24644;SDS011;12780;45.502;9.146;2022-09-16T17:16:42;12.10;;;3.60;;
24644;SDS011;12780;45.502;9.146;2022-09-16T17:19:11;7.13;;;2.65;;
24644;SDS011;12780;45.502;9.146;2022-09-16T17:21:37;12.43;;;3.90;;
24644;SDS011;12780;45.502;9.146;2022-09-16T17:24:04;7.78;;;3.38;;
24644;SDS011;12780;45.502;9.146;2022-09-16T17:26:29;14.45;;;3.33;;
24644;SDS011;12780;45.502;9.146;2022-09-16T17:28:55;16.58;;;3.88;;
24644;SDS011;12780;45.502;9.146;2022-09-16T17:31:22;15.23;;;3.67;;
24644;SDS011;12780;45.502;9.146;2022-09-16T17:34:02;13.02;;;3.40;;
24644;SDS011;12780;45.502;9.146;2022-09-16T17:36:33;10.63;;;3.40;;
24644;SDS011;12780;45.502;9.146;2022-09-16T17:39:04;10.77;;;3.42;;
24644;SDS011;12780;45.502;9.146;2022-09-16T17:41:39;11.40;;;3.20;;
24644;SDS011;12780;45.502;9.146;2022-09-16T17:44:07;8.52;;;3.83;;
24644;SDS011;12780;45.502;9.146;2022-09-16T17:46:35;12.68;;;3.65;;
24644;SDS011;12780;45.502;9.146;2022-09-16T17:49:03;12.50;;;3.55;;
24644;SDS011;12780;45.502;9.146;2022-09-16T17:51:31;8.45;;;3.40;;
24644;SDS011;12780;45.502;9.146;2022-09-16T17:53:58;6.07;;;3.25;;
24644;SDS011;12780;45.502;9.146;2022-09-16T17:56:24;13.73;;;3.47;;
24644;SDS011;12780;45.502;9.146;2022-09-16T17:58:50;10.35;;;3.25;;
24644;SDS011;12780;45.502;9.146;2022-09-16T18:01:18;8.02;;;3.38;;
24644;SDS011;12780;45.502;9.146;2022-09-16T18:03:46;9.30;;;3.30;;
24644;SDS011;12780;45.502;9.146;2022-09-16T18:08:41;9.95;;;3.78;;
24644;SDS011;12780;45.502;9.146;2022-09-16T18:11:07;9.48;;;4.70;;
24644;SDS011;12780;45.502;9.146;2022-09-16T18:13:35;9.73;;;3.20;;
24644;SDS011;12780;45.502;9.146;2022-09-16T18:16:05;7.10;;;3.15;;
24644;SDS011;12780;45.502;9.146;2022-09-16T18:18:50;6.28;;;3.17;;
24644;SDS011;12780;45.502;9.146;2022-09-16T18:21:17;10.98;;;3.38;;
24644;SDS011;12780;45.502;9.146;2022-09-16T18:23:44;10.73;;;3.13;;